Time;durP1;ratioP1;P1;durP2;ratioP2;P2;SDS_P1;SDS_P2;PMS_P1;PMS_P2;Temp;Humidity;BMP_temperature;BMP_pressure;BME280_temperature;BME280_humidity;BME280_pressure;Samples;Min_cycle;Max_cycle;Signal;HPM_P1;HPM_P2
2023/01/18 00:00:10;;;;;;;8.32;3.22;;;1.00;77.40;;;;;;4972302;28;20051;-80
2023/01/18 00:02:39;;;;;;;7.43;3.10;;;0.90;77.40;;;;;;5005888;28;20991;-79
2023/01/18 00:05:06;;;;;;;6.73;2.87;;;0.90;77.30;;;;;;5028414;28;20073;-80
2023/01/18 00:07:34;;;;;;;6.22;2.83;;;0.90;77.30;;;;;;5017641;28;20779;-80
2023/01/18 00:10:01;;;;;;;7.18;2.90;;;0.80;77.40;;;;;;4994312;28;20054;-80
2023/01/18 00:12:28;;;;;;;5.05;2.15;;;0.80;77.40;;;;;;5007764;28;20054;-81
2023/01/18 00:14:55;;;;;;;6.82;2.95;;;0.80;77.50;;;;;;5003484;28;20122;-80
2023/01/18 00:17:22;;;;;;;6.87;2.90;;;0.80;77.40;;;;;;4989578;28;20047;-81
2023/01/18 00:19:51;;;;;;;7.07;2.65;;;0.80;77.40;;;;;;4999319;28;20250;-80
2023/01/18 00:22:18;;;;;;;6.55;3.17;;;0.80;77.50;;;;;;5007578;28;20046;-80
2023/01/18 00:24:45;;;;;;;8.10;2.85;;;0.80;77.50;;;;;;5017106;28;20161;-80
2023/01/18 00:27:12;;;;;;;9.30;3.25;;;0.80;77.50;;;;;;4995757;28;20054;-80
2023/01/18 00:29:39;;;;;;;6.33;2.83;;;0.80;77.60;;;;;;4990179;28;20062;-80
2023/01/18 00:32:06;;;;;;;6.90;3.10;;;0.80;77.60;;;;;;5008515;28;20323;-80
2023/01/18 00:34:33;;;;;;;6.00;3.20;;;0.80;77.60;;;;;;5006161;28;20051;-80
2023/01/18 00:37:02;;;;;;;5.35;2.80;;;0.80;77.60;;;;;;5003039;28;20177;-80
2023/01/18 00:39:29;;;;;;;6.82;2.90;;;0.80;77.70;;;;;;5007040;28;20141;-80
2023/01/18 00:44:40;;;;;;;6.80;2.90;;;0.80;77.70;;;;;;4997720;28;20259;-80
2023/01/18 00:47:07;;;;;;;6.30;2.92;;;0.80;77.70;;;;;;4995342;28;20137;-80
2023/01/18 00:49:35;;;;;;;7.60;3.08;;;0.70;77.70;;;;;;5026897;28;20125;-80
2023/01/18 00:52:03;;;;;;;7.00;3.30;;;0.70;77.70;;;;;;5011966;28;20161;-80
2023/01/18 00:54:30;;;;;;;10.00;3.17;;;0.70;77.70;;;;;;4996760;28;20050;-80
2023/01/18 00:56:57;;;;;;;6.40;3.20;;;0.70;77.70;;;;;;4974548;28;20358;-81
2023/01/18 00:59:24;;;;;;;6.82;3.13;;;0.70;77.70;;;;;;4991035;28;20043;-80
2023/01/18 01:01:52;;;;;;;6.97;3.25;;;0.60;77.70;;;;;;4991992;28;20055;-80
2023/01/18 01:07:05;;;;;;;7.63;4.00;;;0.60;77.70;;;;;;5000080;28;20492;-80
2023/01/18 01:09:32;;;;;;;7.32;3.20;;;0.60;77.80;;;;;;4993368;28;20337;-80
2023/01/18 01:26:03;;;;;;;6.55;3.40;;;0.60;77.90;;;;;;5009970;28;20087;-80
2023/01/18 01:28:32;;;;;;;8.32;4.05;;;0.60;78.00;;;;;;5011039;28;20051;-80
2023/01/18 01:31:00;;;;;;;7.88;4.22;;;0.60;77.90;;;;;;4991874;28;20807;-80
2023/01/18 01:33:28;;;;;;;8.93;3.97;;;0.60;77.90;;;;;;4991805;28;20518;-80
2023/01/18 01:35:56;;;;;;;8.65;3.78;;;0.60;78.00;;;;;;4990903;28;21115;-80
2023/01/18 01:38:25;;;;;;;7.88;3.90;;;0.60;78.10;;;;;;4990525;28;20066;-80
2023/01/18 01:41:00;;;;;;;9.00;3.90;;;0.60;78.10;;;;;;4991441;28;20077;-80
2023/01/18 01:43:42;;;;;;;8.43;3.78;;;0.60;78.00;;;;;;4973778;28;20130;-80
2023/01/18 01:46:19;;;;;;;8.17;3.63;;;0.60;78.10;;;;;;5000912;28;20126;-80
2023/01/18 01:48:47;;;;;;;8.65;4.18;;;0.60;78.10;;;;;;5009693;28;20314;-80
2023/01/18 01:51:16;;;;;;;11.68;4.43;;;0.60;78.10;;;;;;5000295;28;20125;-80
2023/01/18 01:53:46;;;;;;;7.93;3.85;;;0.50;78.10;;;;;;5014480;28;20042;-80
2023/01/18 01:56:13;;;;;;;8.23;3.70;;;0.60;78.10;;;;;;5029010;28;20214;-80
2023/01/18 01:58:42;;;;;;;7.53;3.73;;;0.50;78.10;;;;;;5003429;28;20050;-80
2023/01/18 02:01:09;;;;;;;7.47;3.90;;;0.50;78.10;;;;;;5007915;28;21262;-80
2023/01/18 02:03:41;;;;;;;7.18;3.53;;;0.50;78.10;;;;;;4995686;28;20054;-81
2023/01/18 02:06:15;;;;;;;8.02;3.83;;;0.50;78.20;;;;;;4989776;28;20106;-80
2023/01/18 02:08:46;;;;;;;8.60;3.80;;;0.50;78.30;;;;;;4997836;28;20504;-80
2023/01/18 02:11:13;;;;;;;8.00;3.77;;;0.50;78.30;;;;;;5004693;28;20055;-80
2023/01/18 02:13:40;;;;;;;8.68;3.80;;;0.50;78.30;;;;;;5007410;28;20342;-80
2023/01/18 02:16:17;;;;;;;8.65;3.97;;;0.40;78.40;;;;;;5008435;28;20586;-80
2023/01/18 02:18:52;;;;;;;7.90;3.90;;;0.50;78.40;;;;;;5002579;28;20047;-80
2023/01/18 02:21:23;;;;;;;8.77;4.20;;;0.40;78.40;;;;;;5003926;28;20503;-80
2023/01/18 02:24:32;;;;;;;7.80;4.13;;;0.40;78.30;;;;;;5010387;28;20074;-80
2023/01/18 02:27:16;;;;;;;8.38;4.05;;;0.40;78.40;;;;;;5010551;28;20270;-80
2023/01/18 02:30:15;;;;;;;8.35;4.65;;;0.40;78.40;;;;;;5023197;28;20942;-80
2023/01/18 02:32:58;;;;;;;8.65;4.22;;;0.40;78.40;;;;;;4974773;28;20062;-80
2023/01/18 02:35:33;;;;;;;9.85;4.65;;;0.40;78.30;;;;;;4990333;28;20063;-80
2023/01/18 02:38:06;;;;;;;8.43;4.33;;;0.40;78.30;;;;;;5005220;28;20051;-80
2023/01/18 02:40:43;;;;;;;9.77;4.90;;;0.40;78.20;;;;;;4990367;28;20457;-80
2023/01/18 02:46:47;;;;;;;10.60;5.07;;;0.40;78.20;;;;;;4993804;28;20118;-80
2023/01/18 02:49:21;;;;;;;11.65;5.00;;;0.40;78.20;;;;;;4989090;28;20149;-80
2023/01/18 02:51:48;;;;;;;10.07;4.50;;;0.40;78.20;;;;;;4988832;28;20055;-80
2023/01/18 02:54:23;;;;;;;9.98;4.35;;;0.30;78.20;;;;;;5000040;28;20289;-80
2023/01/18 02:56:52;;;;;;;12.02;4.82;;;0.30;78.30;;;;;;5008504;28;20137;-80
2023/01/18 02:59:24;;;;;;;10.82;4.75;;;0.30;78.40;;;;;;5008304;28;20054;-80
2023/01/18 03:01:57;;;;;;;10.25;4.95;;;0.30;78.40;;;;;;5025114;28;20047;-80
2023/01/18 03:04:27;;;;;;;8.87;4.60;;;0.30;78.40;;;;;;4990718;28;20518;-80
2023/01/18 03:06:59;;;;;;;10.30;4.53;;;0.30;78.40;;;;;;4972473;28;20353;-80
2023/01/18 03:09:27;;;;;;;9.95;4.55;;;0.30;78.30;;;;;;5001834;28;21237;-80
2023/01/18 03:12:00;;;;;;;10.98;4.85;;;0.30;78.40;;;;;;5008688;28;20058;-80
2023/01/18 03:14:42;;;;;;;9.15;4.40;;;0.30;78.30;;;;;;5001940;28;20210;-80
2023/01/18 03:17:17;;;;;;;9.00;4.10;;;0.30;78.40;;;;;;5024909;28;20138;-80
2023/01/18 03:20:06;;;;;;;10.05;4.53;;;0.30;78.40;;;;;;5006675;28;20340;-80
2023/01/18 03:25:26;;;;;;;8.73;4.20;;;0.30;78.40;;;;;;4995926;28;20050;-80
2023/01/18 03:33:46;;;;;;;8.45;4.70;;;0.30;78.50;;;;;;4988885;28;20821;-80
2023/01/18 03:36:20;;;;;;;9.60;4.05;;;0.20;78.50;;;;;;5002076;28;20076;-81
2023/01/18 03:39:16;;;;;;;8.60;4.25;;;0.20;78.60;;;;;;4992954;28;20536;-80
2023/01/18 03:41:46;;;;;;;9.68;3.90;;;0.20;78.50;;;;;;5059425;22;20473;-80
2023/01/18 03:44:18;;;;;;;11.17;4.10;;;0.20;78.50;;;;;;5030979;28;20053;-80
2023/01/18 03:46:45;;;;;;;8.07;4.30;;;0.20;78.40;;;;;;5044605;28;20273;-81
2023/01/18 03:49:15;;;;;;;10.18;4.57;;;0.20;78.40;;;;;;5047177;28;20156;-81
2023/01/18 03:51:54;;;;;;;11.27;4.55;;;0.20;78.40;;;;;;5030331;28;20050;-80
2023/01/18 03:54:32;;;;;;;7.65;4.28;;;0.20;78.40;;;;;;5027730;28;20049;-80
2023/01/18 03:57:02;;;;;;;8.80;4.13;;;0.20;78.50;;;;;;5031064;28;20434;-80
2023/01/18 03:59:34;;;;;;;11.13;4.78;;;0.20;78.40;;;;;;5044571;28;20276;-80
2023/01/18 04:02:02;;;;;;;10.13;3.90;;;0.20;78.50;;;;;;5027564;28;20503;-80
2023/01/18 04:04:30;;;;;;;9.88;4.45;;;0.20;78.40;;;;;;5043314;28;20050;-80
2023/01/18 04:06:57;;;;;;;8.50;4.53;;;0.20;78.40;;;;;;5027189;28;20050;-80
2023/01/18 04:09:25;;;;;;;8.30;4.30;;;0.20;78.50;;;;;;5028531;28;20079;-80
2023/01/18 04:11:52;;;;;;;8.63;4.30;;;0.20;78.40;;;;;;5029480;28;20277;-81
2023/01/18 04:14:19;;;;;;;10.38;4.07;;;0.20;78.50;;;;;;5046866;28;20505;-80
2023/01/18 04:16:46;;;;;;;7.95;3.95;;;0.20;78.50;;;;;;5010728;28;20135;-80
2023/01/18 04:19:13;;;;;;;9.50;4.80;;;0.20;78.50;;;;;;5026995;28;20042;-80
2023/01/18 04:21:42;;;;;;;8.13;4.30;;;0.10;78.50;;;;;;5026924;28;20054;-80
2023/01/18 04:24:10;;;;;;;10.05;4.65;;;0.10;78.60;;;;;;5026636;28;20380;-80
2023/01/18 04:26:37;;;;;;;9.48;4.50;;;0.10;78.60;;;;;;5045768;28;20123;-80
2023/01/18 04:29:04;;;;;;;8.93;4.50;;;0.10;78.60;;;;;;5045452;28;20084;-80
2023/01/18 04:31:31;;;;;;;9.40;4.40;;;0.20;78.60;;;;;;5027239;28;20902;-80
2023/01/18 04:33:58;;;;;;;8.70;4.13;;;0.10;78.60;;;;;;5027327;28;20070;-80
2023/01/18 04:36:27;;;;;;;11.13;4.43;;;0.10;78.60;;;;;;5046840;28;20367;-80
2023/01/18 04:38:56;;;;;;;11.77;4.03;;;0.10;78.60;;;;;;5032353;28;20054;-81
2023/01/18 04:41:23;;;;;;;8.35;4.25;;;0.00;78.60;;;;;;5045792;28;20045;-80
2023/01/18 04:43:51;;;;;;;8.18;4.13;;;0.00;78.60;;;;;;5046794;28;20144;-80
2023/01/18 04:46:18;;;;;;;10.33;4.40;;;0.00;78.60;;;;;;5045816;28;20073;-80
2023/01/18 04:48:49;;;;;;;10.10;4.93;;;0.00;78.70;;;;;;5010485;28;20269;-80
2023/01/18 04:51:17;;;;;;;7.57;3.58;;;0.00;78.70;;;;;;5027613;28;20125;-80
2023/01/18 04:53:45;;;;;;;10.70;4.80;;;0.00;78.70;;;;;;5046786;28;21074;-80
2023/01/18 04:56:14;;;;;;;7.85;3.75;;;0.00;78.90;;;;;;5038164;28;20057;-80
2023/01/18 04:58:41;;;;;;;8.23;4.30;;;0.00;78.80;;;;;;5046759;28;20056;-80
2023/01/18 05:01:11;;;;;;;9.80;4.38;;;0.00;78.90;;;;;;5031692;28;20277;-80
2023/01/18 05:03:38;;;;;;;10.18;4.70;;;0.00;79.00;;;;;;5027152;28;20057;-80
2023/01/18 05:06:07;;;;;;;9.32;4.50;;;0.00;79.00;;;;;;5029311;28;20588;-80
2023/01/18 05:08:35;;;;;;;8.25;4.50;;;0.00;79.10;;;;;;5046796;28;20049;-80
2023/01/18 05:11:03;;;;;;;9.43;4.60;;;0.00;79.10;;;;;;5043075;28;20054;-80
2023/01/18 05:13:33;;;;;;;7.20;4.20;;;0.00;79.10;;;;;;5039730;28;20268;-80
2023/01/18 05:16:00;;;;;;;10.32;4.50;;;0.00;79.10;;;;;;5046072;28;20414;-80
2023/01/18 05:18:28;;;;;;;10.48;4.80;;;0.00;79.10;;;;;;5046379;28;20049;-80
2023/01/18 05:20:55;;;;;;;8.95;4.53;;;0.00;79.20;;;;;;5027389;28;20054;-80
2023/01/18 05:23:22;;;;;;;9.03;4.50;;;0.00;79.10;;;;;;5026852;28;20141;-80
2023/01/18 05:25:52;;;;;;;7.32;4.40;;;0.00;79.10;;;;;;5043910;28;20351;-81
2023/01/18 05:28:19;;;;;;;8.00;3.88;;;0.00;79.30;;;;;;5047953;28;20055;-80
2023/01/18 05:30:49;;;;;;;9.93;4.78;;;0.00;79.20;;;;;;5040886;28;20136;-80
2023/01/18 05:33:16;;;;;;;10.68;4.78;;;0.00;79.20;;;;;;5027991;28;20058;-80
2023/01/18 05:35:48;;;;;;;10.67;4.60;;;0.00;79.20;;;;;;5036923;28;20125;-80
2023/01/18 05:38:15;;;;;;;9.80;4.53;;;0.00;79.30;;;;;;5029688;28;20755;-80
2023/01/18 05:40:44;;;;;;;8.63;4.32;;;0.00;79.30;;;;;;5029497;28;20132;-80
2023/01/18 05:43:11;;;;;;;9.18;4.53;;;0.00;79.30;;;;;;5033233;28;20511;-81
2023/01/18 05:45:38;;;;;;;8.30;4.00;;;0.00;79.40;;;;;;5048916;28;20053;-80
2023/01/18 05:48:07;;;;;;;9.33;4.53;;;0.00;79.30;;;;;;5048949;28;20055;-80
2023/01/18 05:50:34;;;;;;;11.02;4.90;;;0.00;79.30;;;;;;5030496;28;20355;-80
2023/01/18 05:53:16;;;;;;;8.95;4.63;;;0.00;79.40;;;;;;5029732;28;20128;-80
2023/01/18 05:55:43;;;;;;;10.35;4.47;;;0.00;79.50;;;;;;5030160;28;20126;-80
2023/01/18 05:58:11;;;;;;;9.18;4.45;;;0.00;79.40;;;;;;5050159;28;20085;-80
2023/01/18 06:00:38;;;;;;;11.30;4.30;;;0.00;79.50;;;;;;5030883;28;20108;-80
2023/01/18 06:03:06;;;;;;;9.27;4.50;;;0.00;79.50;;;;;;5028835;28;20368;-80
2023/01/18 06:05:33;;;;;;;9.25;4.53;;;0.00;79.50;;;;;;5029405;28;20056;-80
2023/01/18 06:08:01;;;;;;;9.80;4.90;;;0.00;79.50;;;;;;5029445;28;20046;-80
2023/01/18 06:10:28;;;;;;;9.57;5.00;;;0.00;79.40;;;;;;5046365;28;20041;-80
2023/01/18 06:12:55;;;;;;;9.93;5.00;;;0.00;79.50;;;;;;5049089;28;20107;-80
2023/01/18 06:15:22;;;;;;;8.85;4.35;;;0.00;79.50;;;;;;5034351;28;20285;-80
2023/01/18 06:17:50;;;;;;;10.85;5.13;;;0.00;79.40;;;;;;5029064;28;20084;-80
2023/01/18 06:20:18;;;;;;;10.52;4.80;;;0.00;79.50;;;;;;5043563;28;20077;-79
2023/01/18 06:22:46;;;;;;;11.23;4.70;;;0.00;79.50;;;;;;5053427;28;20164;-80
2023/01/18 06:25:14;;;;;;;12.13;5.20;;;0.00;79.50;;;;;;5048377;28;20046;-79
2023/01/18 06:27:41;;;;;;;9.40;4.63;;;0.00;79.50;;;;;;5050220;28;20736;-80
2023/01/18 06:30:10;;;;;;;9.32;4.75;;;0.00;79.50;;;;;;5049798;28;20155;-80
2023/01/18 06:32:37;;;;;;;11.82;4.68;;;0.00;79.60;;;;;;5046589;28;20491;-80
2023/01/18 06:35:04;;;;;;;10.15;4.80;;;0.00;79.40;;;;;;5036747;28;20085;-80
2023/01/18 06:37:33;;;;;;;9.23;4.87;;;0.00;79.50;;;;;;5028781;28;20140;-80
2023/01/18 06:40:00;;;;;;;10.57;4.97;;;0.00;79.50;;;;;;5039609;28;20351;-79
2023/01/18 06:42:27;;;;;;;9.13;4.95;;;0.00;79.50;;;;;;5033746;28;20244;-79
2023/01/18 06:44:54;;;;;;;12.02;4.97;;;0.00;79.50;;;;;;5029863;28;20116;-80
2023/01/18 06:47:21;;;;;;;8.68;4.78;;;0.00;79.50;;;;;;5028163;28;20042;-80
2023/01/18 06:49:48;;;;;;;8.37;4.60;;;0.00;79.40;;;;;;5028615;28;20050;-80
2023/01/18 06:52:18;;;;;;;10.57;4.40;;;0.00;79.40;;;;;;5028042;28;20372;-80
2023/01/18 06:54:47;;;;;;;10.77;4.88;;;0.00;79.40;;;;;;5032772;28;20501;-80
2023/01/18 06:57:14;;;;;;;10.73;4.90;;;0.00;79.40;;;;;;5049463;28;20052;-80
2023/01/18 06:59:41;;;;;;;9.25;4.80;;;0.00;79.40;;;;;;5038418;28;20049;-80
2023/01/18 07:02:12;;;;;;;12.37;5.13;;;0.00;79.40;;;;;;5027954;28;20201;-79
2023/01/18 07:04:42;;;;;;;8.70;4.32;;;0.00;79.50;;;;;;5031709;28;20380;-80
2023/01/18 07:07:10;;;;;;;9.00;4.88;;;0.00;79.50;;;;;;5047638;28;20054;-80
2023/01/18 07:09:37;;;;;;;12.43;5.20;;;0.00;79.50;;;;;;5028113;28;20897;-80
2023/01/18 07:12:06;;;;;;;10.75;4.40;;;0.00;79.40;;;;;;5029396;28;20144;-80
2023/01/18 07:14:33;;;;;;;10.53;4.63;;;0.00;79.40;;;;;;5046981;28;20056;-80
2023/01/18 07:17:01;;;;;;;9.82;4.50;;;0.00;79.30;;;;;;5039190;28;20302;-79
2023/01/18 07:19:28;;;;;;;12.98;4.50;;;0.00;79.40;;;;;;5045354;28;20137;-80
2023/01/18 07:21:55;;;;;;;9.88;4.25;;;0.00;79.40;;;;;;5047486;28;20107;-80
2023/01/18 07:24:22;;;;;;;12.55;4.53;;;0.00;79.40;;;;;;5075187;22;20042;-80
2023/01/18 07:26:49;;;;;;;10.23;4.47;;;0.00;79.40;;;;;;5026204;28;20643;-81
2023/01/18 07:29:17;;;;;;;9.88;4.32;;;0.00;79.40;;;;;;5027336;28;20309;-80
2023/01/18 07:31:44;;;;;;;9.65;4.13;;;0.00;79.40;;;;;;5028884;28;20804;-80
2023/01/18 07:34:12;;;;;;;9.00;3.92;;;0.00;79.40;;;;;;5028950;28;20077;-80
2023/01/18 07:36:40;;;;;;;10.35;4.40;;;0.00;79.50;;;;;;5027666;28;20129;-80
2023/01/18 07:39:08;;;;;;;9.20;4.90;;;0.00;79.50;;;;;;5026462;28;20046;-80
2023/01/18 07:41:35;;;;;;;8.27;4.00;;;0.00;79.50;;;;;;5018901;28;20303;-80
2023/01/18 07:44:03;;;;;;;9.20;4.38;;;0.00;79.50;;;;;;5026897;28;20054;-80
2023/01/18 07:46:32;;;;;;;8.48;3.97;;;0.00;79.50;;;;;;5025937;28;20046;-80
2023/01/18 07:49:01;;;;;;;9.25;4.15;;;0.00;79.40;;;;;;5025730;28;20062;-80
2023/01/18 07:51:29;;;;;;;8.53;4.03;;;0.00;79.50;;;;;;5008094;28;20083;-81
2023/01/18 07:53:56;;;;;;;8.15;3.88;;;0.00;79.50;;;;;;5024901;28;20256;-80
2023/01/18 07:56:25;;;;;;;9.90;4.57;;;0.00;79.50;;;;;;5041001;28;20124;-80
2023/01/18 07:58:53;;;;;;;9.05;3.85;;;0.00;79.50;;;;;;5023306;28;20580;-80
2023/01/18 08:01:22;;;;;;;9.98;4.32;;;0.00;79.60;;;;;;5022418;28;20056;-80
2023/01/18 08:03:53;;;;;;;9.50;4.00;;;0.00;79.50;;;;;;5027278;28;20065;-80
2023/01/18 08:06:23;;;;;;;9.23;4.00;;;0.00;79.50;;;;;;5042230;28;20266;-80
2023/01/18 08:08:51;;;;;;;9.48;4.70;;;0.00;79.50;;;;;;5026081;28;20495;-80
2023/01/18 08:11:19;;;;;;;10.57;4.80;;;0.00;79.40;;;;;;5023476;28;20050;-80
2023/01/18 08:13:48;;;;;;;11.27;4.50;;;0.00;79.50;;;;;;5021406;28;20100;-80
2023/01/18 08:16:16;;;;;;;10.50;5.00;;;0.00;79.50;;;;;;5010185;28;20164;-80
2023/01/18 08:18:44;;;;;;;10.02;4.90;;;0.00;79.60;;;;;;5025912;28;20781;-80
2023/01/18 08:21:14;;;;;;;9.40;4.78;;;0.00;79.60;;;;;;5025724;28;20050;-80
2023/01/18 08:23:41;;;;;;;9.98;5.07;;;0.00;79.70;;;;;;5025434;28;20129;-80
2023/01/18 08:26:11;;;;;;;11.07;5.25;;;0.00;79.70;;;;;;5026961;28;20050;-80
2023/01/18 08:28:40;;;;;;;10.90;5.60;;;0.00;79.70;;;;;;5028029;28;20149;-80
2023/01/18 08:31:10;;;;;;;10.88;5.00;;;0.00;79.70;;;;;;5009054;28;20277;-80
2023/01/18 08:33:44;;;;;;;11.07;5.15;;;0.00;79.70;;;;;;5026575;28;20157;-80
2023/01/18 08:36:14;;;;;;;10.63;4.47;;;0.00;79.70;;;;;;5028730;28;20058;-80
2023/01/18 08:38:42;;;;;;;9.88;4.30;;;0.00;79.70;;;;;;5025783;28;20056;-80
2023/01/18 08:41:09;;;;;;;12.73;5.10;;;0.00;79.70;;;;;;5006893;28;20441;-80
2023/01/18 08:43:36;;;;;;;12.65;5.20;;;0.00;79.70;;;;;;5027113;28;20333;-81
2023/01/18 08:46:05;;;;;;;10.27;4.75;;;0.00;79.70;;;;;;5009913;28;20522;-81
2023/01/18 08:48:32;;;;;;;13.15;5.13;;;0.00;79.70;;;;;;5043398;28;20152;-81
2023/01/18 08:51:03;;;;;;;12.52;5.57;;;0.00;79.70;;;;;;5009503;28;20133;-81
2023/01/18 08:53:32;;;;;;;9.80;4.97;;;0.00;79.80;;;;;;5025502;28;20054;-80
2023/01/18 08:55:59;;;;;;;9.95;4.93;;;0.00;79.80;;;;;;5026625;28;21279;-81
2023/01/18 08:58:26;;;;;;;11.05;4.70;;;0.00;79.80;;;;;;5009811;28;20753;-81
2023/01/18 09:00:53;;;;;;;8.25;3.70;;;0.00;79.90;;;;;;5026163;28;20046;-81
2023/01/18 09:03:21;;;;;;;10.18;5.68;;;0.00;80.00;;;;;;5025692;28;20053;-80
2023/01/18 09:05:49;;;;;;;9.07;4.17;;;0.00;79.90;;;;;;5027345;28;20113;-80
2023/01/18 09:08:16;;;;;;;12.85;5.35;;;0.00;80.00;;;;;;5025311;28;20724;-81
2023/01/18 09:10:46;;;;;;;12.50;5.70;;;0.00;80.00;;;;;;5029079;28;20062;-81
2023/01/18 09:13:13;;;;;;;10.80;5.40;;;0.00;80.10;;;;;;5031480;28;20042;-81
2023/01/18 09:15:40;;;;;;;12.27;5.30;;;0.00;80.10;;;;;;5029290;28;20164;-82
2023/01/18 09:18:07;;;;;;;12.73;6.13;;;0.00;80.20;;;;;;5028597;28;20060;-79
2023/01/18 09:20:35;;;;;;;10.80;4.35;;;0.00;80.20;;;;;;5030126;28;20340;-80
2023/01/18 09:23:06;;;;;;;13.13;6.30;;;0.00;80.30;;;;;;5029222;28;21085;-80
2023/01/18 09:25:35;;;;;;;12.23;5.13;;;0.10;80.40;;;;;;5027642;28;20061;-80
2023/01/18 09:28:05;;;;;;;11.43;5.55;;;0.20;80.40;;;;;;5028246;28;20073;-80
2023/01/18 09:30:34;;;;;;;11.40;6.17;;;0.20;80.50;;;;;;5026507;28;20057;-80
2023/01/18 09:33:01;;;;;;;12.40;6.25;;;0.20;80.40;;;;;;5013805;28;20775;-79
2023/01/18 09:35:29;;;;;;;12.05;5.63;;;0.20;80.50;;;;;;5024409;28;20057;-79
2023/01/18 09:37:56;;;;;;;12.82;6.53;;;0.30;80.40;;;;;;5027643;28;20054;-79
2023/01/18 09:40:35;;;;;;;12.77;5.72;;;0.30;80.50;;;;;;5028255;28;20054;-78
2023/01/18 09:43:17;;;;;;;11.10;6.30;;;0.30;80.50;;;;;;5027859;28;20054;-79
2023/01/18 09:45:46;;;;;;;10.70;5.38;;;0.30;80.60;;;;;;5028293;28;20385;-79
2023/01/18 09:48:27;;;;;;;11.63;6.90;;;0.40;80.50;;;;;;5027175;28;20152;-77
2023/01/18 09:50:58;;;;;;;13.93;5.90;;;0.40;80.50;;;;;;5029653;28;20428;-80
2023/01/18 09:53:39;;;;;;;9.23;4.75;;;0.50;80.50;;;;;;5028737;28;20070;-80
2023/01/18 09:56:15;;;;;;;13.80;5.20;;;0.50;80.60;;;;;;5028307;28;20125;-81
2023/01/18 09:58:56;;;;;;;10.75;6.15;;;0.50;80.70;;;;;;5029495;28;20285;-80
2023/01/18 10:01:27;;;;;;;8.88;4.72;;;0.60;80.90;;;;;;5028767;28;20074;-80
2023/01/18 10:03:57;;;;;;;11.40;5.47;;;0.60;80.90;;;;;;5027175;28;20567;-80
2023/01/18 10:06:29;;;;;;;11.98;5.72;;;0.60;80.90;;;;;;5027342;28;20155;-80
2023/01/18 10:09:03;;;;;;;9.33;4.70;;;0.80;81.10;;;;;;5015582;28;20447;-80
2023/01/18 10:11:36;;;;;;;12.43;4.97;;;0.80;81.10;;;;;;5018149;28;20739;-81
2023/01/18 10:14:14;;;;;;;11.95;5.88;;;0.80;81.10;;;;;;5012231;28;20136;-81
2023/01/18 10:16:41;;;;;;;10.25;4.90;;;1.00;81.10;;;;;;5027066;28;20081;-81
2023/01/18 10:19:16;;;;;;;10.93;5.13;;;1.00;81.00;;;;;;5029133;28;20133;-80
2023/01/18 10:21:53;;;;;;;11.73;4.67;;;1.10;80.90;;;;;;5029485;28;20054;-79
2023/01/18 10:24:29;;;;;;;10.48;5.18;;;1.20;80.70;;;;;;5024510;28;20277;-80
2023/01/18 10:27:10;;;;;;;11.40;4.90;;;1.20;80.70;;;;;;5028132;28;20140;-80
2023/01/18 10:30:00;;;;;;;8.20;3.53;;;1.40;80.60;;;;;;5028161;28;20050;-81
2023/01/18 10:32:30;;;;;;;8.52;4.20;;;1.40;80.40;;;;;;5031107;28;20124;-81
2023/01/18 10:34:58;;;;;;;12.00;5.73;;;1.50;80.10;;;;;;5028212;28;20133;-80
2023/01/18 10:37:37;;;;;;;9.80;5.05;;;1.50;80.10;;;;;;5044476;28;21267;-81
2023/01/18 10:40:09;;;;;;;8.20;4.25;;;1.60;80.10;;;;;;5027473;28;20080;-80
2023/01/18 10:42:43;;;;;;;10.65;5.00;;;1.70;80.00;;;;;;5027285;28;20081;-81
2023/01/18 10:45:18;;;;;;;9.88;5.03;;;1.80;80.10;;;;;;5029515;28;20057;-80
2023/01/18 10:47:46;;;;;;;10.00;4.47;;;1.80;80.00;;;;;;5026617;28;20061;-80
2023/01/18 10:50:15;;;;;;;9.27;4.93;;;1.90;79.80;;;;;;5027859;28;20280;-80
2023/01/18 10:52:42;;;;;;;9.77;3.47;;;2.00;79.60;;;;;;5026397;28;20555;-79
2023/01/18 10:55:16;;;;;;;7.05;4.10;;;2.00;79.50;;;;;;5026044;28;20045;-82
2023/01/18 10:57:46;;;;;;;10.45;4.22;;;2.10;79.40;;;;;;5011841;28;20072;-81
2023/01/18 11:00:21;;;;;;;7.63;3.87;;;2.20;79.10;;;;;;5027986;28;20046;-83
2023/01/18 11:02:51;;;;;;;9.38;4.38;;;2.30;78.80;;;;;;5042589;28;20278;-82
2023/01/18 11:05:26;;;;;;;8.40;4.15;;;2.40;78.70;;;;;;5027754;28;20160;-82
2023/01/18 11:08:19;;;;;;;9.60;4.70;;;2.40;78.80;;;;;;5043129;28;20081;-82
2023/01/18 11:10:57;;;;;;;7.13;2.85;;;2.50;78.60;;;;;;5007607;28;20078;-82
2023/01/18 11:13:26;;;;;;;9.83;4.03;;;2.50;78.40;;;;;;5026232;28;20128;-83
2023/01/18 11:16:16;;;;;;;10.35;4.25;;;2.70;78.20;;;;;;5026656;28;20405;-82
2023/01/18 11:19:02;;;;;;;10.57;4.15;;;2.80;78.00;;;;;;5024455;28;20108;-79
2023/01/18 11:21:44;;;;;;;9.15;3.50;;;2.90;77.60;;;;;;5025513;28;20129;-76
2023/01/18 11:24:15;;;;;;;9.60;4.32;;;2.90;77.20;;;;;;5007626;28;20078;-90
2023/01/18 11:26:58;;;;;;;10.57;4.10;;;3.00;77.00;;;;;;5018499;28;20570;-83
2023/01/18 11:29:29;;;;;;;6.88;3.38;;;3.10;76.60;;;;;;5000727;28;20436;-86
2023/01/18 11:32:02;;;;;;;8.38;4.07;;;3.20;76.00;;;;;;5026470;28;20585;-87
2023/01/18 11:34:32;;;;;;;8.65;4.15;;;3.30;75.50;;;;;;5020828;28;20054;-87
2023/01/18 11:37:00;;;;;;;7.70;3.35;;;3.30;75.10;;;;;;5026053;28;20100;-86
2023/01/18 11:39:33;;;;;;;8.70;4.37;;;3.40;75.00;;;;;;5007264;28;20128;-88
2023/01/18 11:42:21;;;;;;;8.05;3.38;;;3.50;74.30;;;;;;5026766;28;20316;-87
2023/01/18 11:45:10;;;;;;;7.97;4.13;;;3.50;74.40;;;;;;5013627;28;20435;-88
2023/01/18 11:47:52;;;;;;;9.90;4.28;;;3.60;74.10;;;;;;5030922;28;20909;-85
2023/01/18 11:50:27;;;;;;;7.50;3.20;;;3.70;73.80;;;;;;5005798;28;20058;-86
2023/01/18 11:53:00;;;;;;;8.60;3.80;;;3.70;73.90;;;;;;5009141;28;20050;-85
2023/01/18 11:55:34;;;;;;;10.68;3.92;;;3.70;73.80;;;;;;5027044;28;20277;-86
2023/01/18 11:58:04;;;;;;;8.13;3.72;;;3.90;73.40;;;;;;5025541;28;20057;-87
2023/01/18 12:00:45;;;;;;;8.80;3.72;;;3.90;73.10;;;;;;5009633;28;20053;-86
2023/01/18 12:03:47;;;;;;;6.30;2.90;;;3.90;73.00;;;;;;5011078;28;20050;-87
2023/01/18 12:06:28;;;;;;;6.87;3.30;;;4.00;72.60;;;;;;5024378;28;20058;-86
2023/01/18 12:09:23;;;;;;;7.43;3.88;;;4.00;72.60;;;;;;5026470;28;20264;-84
2023/01/18 12:12:05;;;;;;;7.60;3.63;;;4.10;72.50;;;;;;5011807;28;20066;-86
2023/01/18 12:14:45;;;;;;;8.98;3.75;;;4.20;71.70;;;;;;5021365;28;20141;-85
2023/01/18 12:17:29;;;;;;;8.80;4.03;;;4.20;71.50;;;;;;5024120;28;20054;-84
2023/01/18 12:20:15;;;;;;;8.10;4.07;;;4.30;71.40;;;;;;5026083;28;20085;-85
2023/01/18 12:23:10;;;;;;;8.57;3.97;;;4.30;71.70;;;;;;5027456;28;20257;-88
2023/01/18 12:26:07;;;;;;;8.02;3.70;;;4.30;71.50;;;;;;5025501;28;20092;-85
2023/01/18 12:28:47;;;;;;;7.20;3.28;;;4.40;71.40;;;;;;5025945;28;20973;-87
2023/01/18 12:31:24;;;;;;;7.75;2.95;;;4.40;71.20;;;;;;5042190;28;20054;-86
2023/01/18 12:33:59;;;;;;;8.50;3.90;;;4.40;71.10;;;;;;5007012;28;20058;-86
2023/01/18 12:36:51;;;;;;;7.75;3.92;;;4.40;71.10;;;;;;5017275;28;20384;-87
2023/01/18 12:39:34;;;;;;;9.35;4.28;;;4.50;70.80;;;;;;5026519;28;20432;-85
2023/01/18 12:42:05;;;;;;;8.90;4.07;;;4.50;70.80;;;;;;5010412;28;20172;-89
2023/01/18 12:44:54;;;;;;;7.47;4.13;;;4.50;70.60;;;;;;5019927;28;20057;-87
2023/01/18 12:47:33;;;;;;;6.23;3.43;;;4.50;70.50;;;;;;5030970;28;20393;-86
2023/01/18 12:50:07;;;;;;;7.65;4.05;;;4.50;70.50;;;;;;5030323;28;20291;-87
2023/01/18 12:52:48;;;;;;;7.32;3.63;;;4.60;70.60;;;;;;5015094;28;20053;-87
2023/01/18 12:55:20;;;;;;;9.07;3.80;;;4.60;70.70;;;;;;5032073;28;21045;-88
2023/01/18 12:57:50;;;;;;;8.75;4.35;;;4.70;70.40;;;;;;5013419;28;20050;-82
2023/01/18 13:00:23;;;;;;;8.60;4.50;;;4.70;70.50;;;;;;5029928;28;20129;-81
2023/01/18 13:02:55;;;;;;;8.48;4.47;;;4.70;70.10;;;;;;5029995;28;20285;-81
2023/01/18 13:05:33;;;;;;;9.30;4.03;;;4.70;70.10;;;;;;5028856;28;20054;-81
2023/01/18 13:08:08;;;;;;;8.23;4.00;;;4.70;70.00;;;;;;5015462;28;20527;-81
2023/01/18 13:10:37;;;;;;;9.40;4.25;;;4.70;70.20;;;;;;5043954;28;20049;-82
2023/01/18 13:13:06;;;;;;;6.23;3.57;;;4.90;69.90;;;;;;5030366;28;20153;-85
2023/01/18 13:15:42;;;;;;;7.38;3.78;;;4.80;70.10;;;;;;5012587;28;20348;-85
2023/01/18 13:18:16;;;;;;;7.88;3.80;;;4.90;70.10;;;;;;5030315;28;20160;-86
2023/01/18 13:21:04;;;;;;;9.18;3.88;;;4.90;70.10;;;;;;5014237;28;20112;-87
2023/01/18 13:23:44;;;;;;;9.10;4.22;;;4.90;70.40;;;;;;5014446;28;20916;-87
2023/01/18 13:26:23;;;;;;;8.83;4.20;;;4.90;70.50;;;;;;5025384;28;20455;-87
2023/01/18 13:29:15;;;;;;;7.82;3.80;;;5.00;70.10;;;;;;5043578;28;20767;-86
2023/01/18 13:31:42;;;;;;;10.30;3.92;;;5.00;70.10;;;;;;5011920;28;20141;-84
2023/01/18 13:34:24;;;;;;;7.05;3.30;;;5.00;70.20;;;;;;5007704;28;20147;-81
2023/01/18 13:36:51;;;;;;;6.93;3.55;;;5.00;70.30;;;;;;5028102;28;20134;-84
2023/01/18 13:39:20;;;;;;;6.97;4.00;;;5.00;69.60;;;;;;5010397;28;20069;-86
2023/01/18 13:42:22;;;;;;;7.75;3.60;;;5.00;69.30;;;;;;5016626;28;20381;-85
2023/01/18 13:45:06;;;;;;;8.55;3.90;;;5.00;69.30;;;;;;5026203;28;20148;-84
2023/01/18 13:47:47;;;;;;;9.25;3.80;;;5.00;69.10;;;;;;5007360;28;20396;-84